createdAt,value
2018-09-05T00:00:02.371Z,0
2018-09-05T00:01:11.549Z,0
2018-09-05T00:02:20.992Z,0
2018-09-05T00:03:30.218Z,0
2018-09-05T00:04:39.636Z,0
2018-09-05T00:05:48.839Z,0
2018-09-05T00:06:57.995Z,0
2018-09-05T00:08:07.208Z,0
2018-09-05T00:09:16.139Z,0
2018-09-05T00:10:25.324Z,0
2018-09-05T00:11:35.001Z,0
2018-09-05T00:12:44.211Z,0
2018-09-05T00:13:53.430Z,0
2018-09-05T00:15:03.210Z,0
2018-09-05T00:16:12.397Z,0
2018-09-05T00:17:22.082Z,0
2018-09-05T00:18:31.783Z,0
2018-09-05T00:19:40.943Z,0
2018-09-05T00:20:50.372Z,0
2018-09-05T00:21:59.595Z,0
2018-09-05T00:23:09.022Z,0
2018-09-05T00:24:18.453Z,0
2018-09-05T00:25:27.612Z,0
2018-09-05T00:26:36.503Z,0
2018-09-05T00:27:45.943Z,0
2018-09-05T00:28:55.621Z,0
2018-09-05T00:30:05.313Z,0
2018-09-05T00:31:14.215Z,0
2018-09-05T00:32:23.627Z,0
2018-09-05T00:33:33.064Z,0
2018-09-05T00:34:42.468Z,0
2018-09-05T00:35:51.392Z,0
2018-09-05T00:37:00.332Z,0
2018-09-05T00:38:09.298Z,0
2018-09-05T00:39:18.980Z,0
2018-09-05T00:40:28.449Z,0
2018-09-05T00:41:37.616Z,0
2018-09-05T00:42:47.299Z,0
2018-09-05T00:43:56.473Z,0
2018-09-05T00:45:05.378Z,0
2018-09-05T00:46:14.548Z,0
2018-09-05T00:47:24.225Z,0
2018-09-05T00:48:33.139Z,0
2018-09-05T00:49:42.850Z,0
2018-09-05T00:50:52.561Z,0
2018-09-05T00:52:02.261Z,0
2018-09-05T00:53:11.417Z,0
2018-09-05T00:54:20.585Z,0
2018-09-05T00:55:30.273Z,0
2018-09-05T00:56:39.189Z,0
2018-09-05T00:57:48.616Z,0
2018-09-05T00:58:57.779Z,0
2018-09-05T01:00:07.437Z,0
2018-09-05T01:01:16.613Z,0
2018-09-05T01:02:26.296Z,0
2018-09-05T01:03:35.468Z,0
2018-09-05T01:04:45.473Z,0
2018-09-05T01:05:54.902Z,0
2018-09-05T01:07:04.318Z,0
2018-09-05T01:08:13.484Z,0
2018-09-05T01:09:23.282Z,0
2018-09-05T01:10:32.446Z,0
2018-09-05T01:11:41.367Z,0
2018-09-05T01:12:51.318Z,0
2018-09-05T01:14:00.733Z,0
2018-09-05T01:15:10.398Z,0
2018-09-05T01:16:20.075Z,0
2018-09-05T01:17:30.018Z,0
2018-09-05T01:18:38.919Z,0
2018-09-05T01:19:47.851Z,0
2018-09-05T01:20:57.526Z,0
2018-09-05T01:22:06.873Z,0
2018-09-05T01:23:16.101Z,0
2018-09-05T01:24:25.984Z,0
2018-09-05T01:25:36.087Z,0
2018-09-05T01:26:46.177Z,0
2018-09-05T01:27:56.129Z,0
2018-09-05T01:29:05.567Z,0
2018-09-05T01:30:15.241Z,0
2018-09-05T01:31:24.412Z,0
2018-09-05T01:32:33.831Z,0
2018-09-05T01:33:43.764Z,0
2018-09-05T01:34:52.928Z,0
2018-09-05T01:36:02.078Z,0
2018-09-05T01:37:11.503Z,0
2018-09-05T01:38:20.966Z,0
2018-09-05T01:39:30.128Z,0
2018-09-05T01:40:39.804Z,0
2018-09-05T01:41:49.250Z,0
2018-09-05T01:42:58.942Z,0
2018-09-05T01:44:08.366Z,0
2018-09-05T01:45:17.774Z,0
2018-09-05T01:46:27.199Z,0
2018-09-05T01:47:36.367Z,0
2018-09-05T01:48:46.503Z,0
2018-09-05T01:49:56.087Z,0
2018-09-05T01:51:05.797Z,0
2018-09-05T01:52:15.471Z,0
2018-09-05T01:53:24.643Z,0
2018-09-05T01:54:33.555Z,0
2018-09-05T01:55:43.284Z,0
2018-09-05T01:56:52.966Z,0
2018-09-05T01:58:02.169Z,0
2018-09-05T01:59:11.354Z,0
2018-09-05T02:00:21.049Z,0
2018-09-05T02:01:30.777Z,0
2018-09-05T02:02:40.217Z,0
2018-09-05T02:03:49.449Z,0
2018-09-05T02:04:58.874Z,0
2018-09-05T02:06:08.050Z,0
2018-09-05T02:07:16.686Z,0
2018-09-05T02:08:26.575Z,0
2018-09-05T02:09:36.170Z,0
2018-09-05T02:10:45.069Z,0
2018-09-05T02:11:54.247Z,0
2018-09-05T02:13:03.494Z,0
2018-09-05T02:14:13.174Z,0
2018-09-05T02:15:22.350Z,0
2018-09-05T02:16:32.285Z,0
2018-09-05T02:17:41.715Z,0
2018-09-05T02:18:51.391Z,0
2018-09-05T02:20:00.825Z,0
2018-09-05T02:21:10.513Z,0
2018-09-05T02:22:19.436Z,0
2018-09-05T02:23:28.878Z,0
2018-09-05T02:24:38.566Z,0
2018-09-05T02:25:47.988Z,0
2018-09-05T02:26:58.028Z,0
2018-09-05T02:28:07.996Z,0
2018-09-05T02:29:17.414Z,0
2018-09-05T02:30:26.854Z,0
2018-09-05T02:31:36.268Z,0
2018-09-05T02:32:45.180Z,0
2018-09-05T02:33:54.611Z,0
2018-09-05T02:35:04.053Z,0
2018-09-05T02:36:14.013Z,0
2018-09-05T02:37:22.972Z,0
2018-09-05T02:38:32.388Z,0
2018-09-05T02:39:41.816Z,0
2018-09-05T02:40:51.508Z,0
2018-09-05T02:42:01.085Z,0
2018-09-05T02:43:10.502Z,0
2018-09-05T02:44:19.673Z,0
2018-09-05T02:45:28.842Z,0
2018-09-05T02:46:38.547Z,0
2018-09-05T02:47:48.505Z,0
2018-09-05T02:48:57.663Z,0
2018-09-05T02:50:07.100Z,0
2018-09-05T02:51:16.779Z,0
2018-09-05T02:52:25.940Z,0
2018-09-05T02:53:35.629Z,0
2018-09-05T02:54:45.064Z,0
2018-09-05T02:55:54.237Z,0
2018-09-05T02:57:03.422Z,0
2018-09-05T02:58:13.347Z,0
2018-09-05T02:59:23.037Z,0
2018-09-05T03:00:32.983Z,0
2018-09-05T03:01:42.422Z,0
2018-09-05T03:02:51.680Z,0
2018-09-05T03:04:01.109Z,0
2018-09-05T03:05:10.787Z,0
2018-09-05T03:06:20.472Z,0
2018-09-05T03:07:29.669Z,0
2018-09-05T03:08:39.116Z,0
2018-09-05T03:09:48.538Z,0
2018-09-05T03:10:57.977Z,0
2018-09-05T03:12:07.423Z,0
2018-09-05T03:13:16.586Z,0
2018-09-05T03:14:26.278Z,0
2018-09-05T03:15:35.976Z,0
2018-09-05T03:16:44.991Z,0
2018-09-05T03:17:58.480Z,0
2018-09-05T03:19:11.202Z,0
2018-09-05T03:20:20.635Z,0
2018-09-05T03:21:30.078Z,0
2018-09-05T03:22:39.352Z,0
2018-09-05T03:23:49.047Z,0
2018-09-05T03:24:58.563Z,0
2018-09-05T03:26:07.986Z,0
2018-09-05T03:27:17.424Z,0
2018-09-05T03:28:26.586Z,0
2018-09-05T03:29:35.516Z,0
2018-09-05T03:30:44.952Z,0
2018-09-05T03:31:54.926Z,0
2018-09-05T03:33:04.147Z,0
2018-09-05T03:34:13.907Z,0
2018-09-05T03:35:23.345Z,0
2018-09-05T03:36:32.797Z,0
2018-09-05T03:37:42.483Z,0
2018-09-05T03:38:52.184Z,0
2018-09-05T03:40:01.615Z,0
2018-09-05T03:41:10.551Z,0
2018-09-05T03:42:19.713Z,0
2018-09-05T03:43:28.634Z,0
2018-09-05T03:44:38.116Z,0
2018-09-05T03:45:47.638Z,0
2018-09-05T03:46:56.797Z,0
2018-09-05T03:48:06.029Z,0
2018-09-05T03:49:15.839Z,0
2018-09-05T03:50:24.709Z,0
2018-09-05T03:51:34.622Z,0
2018-09-05T03:52:44.034Z,0
2018-09-05T03:53:53.724Z,0
2018-09-05T03:55:02.625Z,0
2018-09-05T03:56:11.796Z,0
2018-09-05T03:57:21.488Z,0
2018-09-05T03:58:30.918Z,0
2018-09-05T03:59:40.078Z,0
2018-09-05T04:00:49.511Z,0
2018-09-05T04:01:59.198Z,0
2018-09-05T04:03:08.193Z,0
2018-09-05T04:04:17.611Z,0
2018-09-05T04:05:26.783Z,0
2018-09-05T04:06:35.713Z,0
2018-09-05T04:07:45.127Z,0
2018-09-05T04:08:54.545Z,0
2018-09-05T04:10:03.964Z,0
2018-09-05T04:11:13.393Z,0
2018-09-05T04:12:23.245Z,0
2018-09-05T04:13:33.176Z,0
2018-09-05T04:14:42.451Z,0
2018-09-05T04:15:51.375Z,0
2018-09-05T04:17:01.057Z,0
2018-09-05T04:18:10.780Z,0
2018-09-05T04:19:20.719Z,0
2018-09-05T04:20:30.499Z,0
2018-09-05T04:21:40.177Z,0
2018-09-05T04:22:49.597Z,0
2018-09-05T04:23:59.052Z,0
2018-09-05T04:25:08.729Z,0
2018-09-05T04:26:17.924Z,0
2018-09-05T04:27:27.342Z,0
2018-09-05T04:28:36.786Z,0
2018-09-05T04:29:46.907Z,0
2018-09-05T04:30:56.082Z,0
2018-09-05T04:32:05.486Z,0
2018-09-05T04:33:14.652Z,0
2018-09-05T04:34:24.086Z,0
2018-09-05T04:35:34.039Z,0
2018-09-05T04:36:43.983Z,0
2018-09-05T04:37:53.469Z,0
2018-09-05T04:39:03.217Z,0
2018-09-05T04:40:12.125Z,0
2018-09-05T04:41:22.067Z,0
2018-09-05T04:42:31.745Z,0
2018-09-05T04:43:40.648Z,0
2018-09-05T04:44:49.814Z,0
2018-09-05T04:45:59.224Z,0
2018-09-05T04:47:08.889Z,0
2018-09-05T04:48:18.062Z,0
2018-09-05T04:49:27.254Z,0
2018-09-05T04:50:36.974Z,0
2018-09-05T04:51:46.233Z,0
2018-09-05T04:52:56.310Z,0
2018-09-05T04:54:05.220Z,0
2018-09-05T04:55:15.273Z,0
2018-09-05T04:56:24.947Z,0
2018-09-05T04:57:34.122Z,0
2018-09-05T04:58:44.137Z,0
2018-09-05T04:59:53.561Z,0
2018-09-05T05:01:03.609Z,0
2018-09-05T05:02:13.030Z,0
2018-09-05T05:03:22.708Z,0
2018-09-05T05:04:32.778Z,0
2018-09-05T05:05:43.317Z,0
2018-09-05T05:06:52.819Z,0
2018-09-05T05:08:02.788Z,0
2018-09-05T05:09:12.479Z,0
2018-09-05T05:10:22.148Z,0
2018-09-05T05:11:30.804Z,0
2018-09-05T05:12:40.860Z,0
2018-09-05T05:13:51.082Z,0
2018-09-05T05:15:01.112Z,0
2018-09-05T05:16:10.280Z,0
2018-09-05T05:17:19.695Z,4
2018-09-05T05:18:29.124Z,4
2018-09-05T05:19:38.088Z,4
2018-09-05T05:20:47.790Z,4
2018-09-05T05:21:56.961Z,4
2018-09-05T05:23:06.636Z,0
2018-09-05T05:24:15.542Z,0
2018-09-05T05:25:24.987Z,0
2018-09-05T05:26:34.151Z,0
2018-09-05T05:27:43.568Z,0
2018-09-05T05:28:52.751Z,0
2018-09-05T05:30:02.156Z,0
2018-09-05T05:31:11.327Z,0
2018-09-05T05:32:20.278Z,0
2018-09-05T05:33:29.703Z,4
2018-09-05T05:34:39.157Z,4
2018-09-05T05:35:48.833Z,4
2018-09-05T05:36:57.987Z,4
2018-09-05T05:38:07.966Z,4
2018-09-05T05:39:17.148Z,4
2018-09-05T05:40:27.032Z,4
2018-09-05T05:41:36.463Z,4
2018-09-05T05:42:45.625Z,4
2018-09-05T05:43:54.862Z,4
2018-09-05T05:45:04.275Z,4
2018-09-05T05:46:13.694Z,4
2018-09-05T05:47:22.855Z,0
2018-09-05T05:48:31.571Z,0
2018-09-05T05:49:41.425Z,0
2018-09-05T05:50:50.858Z,4
2018-09-05T05:52:00.276Z,4
2018-09-05T05:53:09.974Z,4
2018-09-05T05:54:19.132Z,4
2018-09-05T05:55:28.297Z,4
2018-09-05T05:56:37.460Z,4
2018-09-05T05:57:47.134Z,4
2018-09-05T05:58:57.242Z,4
2018-09-05T06:00:06.405Z,4
2018-09-05T06:01:15.837Z,4
2018-09-05T06:02:25.251Z,4
2018-09-05T06:03:34.684Z,4
2018-09-05T06:04:44.107Z,4
2018-09-05T06:05:53.604Z,4
2018-09-05T06:07:02.836Z,4
2018-09-05T06:08:12.061Z,4
2018-09-05T06:09:21.486Z,4
2018-09-05T06:10:31.162Z,4
2018-09-05T06:11:40.626Z,4
2018-09-05T06:12:49.836Z,8
2018-09-05T06:13:59.282Z,4
2018-09-05T06:15:08.966Z,4
2018-09-05T06:16:17.933Z,4
2018-09-05T06:17:27.677Z,4
2018-09-05T06:18:37.670Z,4
2018-09-05T06:19:47.448Z,4
2018-09-05T06:20:56.660Z,4
2018-09-05T06:22:05.904Z,4
2018-09-05T06:23:14.810Z,4
2018-09-05T06:24:24.239Z,4
2018-09-05T06:25:33.667Z,4
2018-09-05T06:26:42.904Z,4
2018-09-05T06:27:53.158Z,4
2018-09-05T06:29:03.059Z,4
2018-09-05T06:30:12.218Z,4
2018-09-05T06:31:23.045Z,8
2018-09-05T06:32:32.669Z,8
2018-09-05T06:33:41.584Z,8
2018-09-05T06:34:50.485Z,4
2018-09-05T06:35:59.909Z,4
2018-09-05T06:37:09.121Z,4
2018-09-05T06:38:18.817Z,8
2018-09-05T06:39:28.003Z,8
2018-09-05T06:40:37.439Z,4
2018-09-05T06:41:47.143Z,8
2018-09-05T06:42:56.855Z,8
2018-09-05T06:44:06.601Z,8
2018-09-05T06:45:16.633Z,8
2018-09-05T06:46:26.395Z,8
2018-09-05T06:47:35.889Z,8
2018-09-05T06:48:45.351Z,12
2018-09-05T06:49:54.587Z,8
2018-09-05T06:51:04.020Z,12
2018-09-05T06:52:13.450Z,12
2018-09-05T06:53:23.133Z,12
2018-09-05T06:54:32.816Z,12
2018-09-05T06:55:42.505Z,16
2018-09-05T06:56:51.973Z,16
2018-09-05T06:58:01.404Z,12
2018-09-05T06:59:10.314Z,12
2018-09-05T07:00:19.753Z,12
2018-09-05T07:01:29.172Z,12
2018-09-05T07:02:38.605Z,12
2018-09-05T07:03:48.583Z,8
2018-09-05T07:04:58.634Z,12
2018-09-05T07:06:08.380Z,12
2018-09-05T07:07:17.794Z,12
2018-09-05T07:08:27.585Z,12
2018-09-05T07:09:37.003Z,12
2018-09-05T07:10:46.439Z,12
2018-09-05T07:11:55.670Z,12
2018-09-05T07:13:05.353Z,12
2018-09-05T07:14:15.323Z,12
2018-09-05T07:15:24.840Z,8
2018-09-05T07:16:34.011Z,8
2018-09-05T07:17:44.212Z,8
2018-09-05T07:18:54.147Z,12
2018-09-05T07:20:02.805Z,12
2018-09-05T07:21:12.935Z,12
2018-09-05T07:22:21.833Z,12
2018-09-05T07:23:31.521Z,12
2018-09-05T07:24:41.214Z,12
2018-09-05T07:25:50.644Z,12
2018-09-05T07:26:59.809Z,12
2018-09-05T07:28:08.711Z,8
2018-09-05T07:29:18.640Z,12
2018-09-05T07:30:28.282Z,12
2018-09-05T07:31:38.043Z,12
2018-09-05T07:32:47.475Z,8
2018-09-05T07:33:56.884Z,8
2018-09-05T07:35:06.576Z,8
2018-09-05T07:36:16.515Z,8
2018-09-05T07:37:26.221Z,8
2018-09-05T07:38:35.402Z,12
2018-09-05T07:39:45.096Z,12
2018-09-05T07:40:54.267Z,12
2018-09-05T07:42:03.934Z,12
2018-09-05T07:43:13.409Z,12
2018-09-05T07:44:22.584Z,12
2018-09-05T07:45:31.799Z,12
2018-09-05T07:46:40.712Z,12
2018-09-05T07:47:50.393Z,12
2018-09-05T07:49:00.367Z,12
2018-09-05T07:50:09.554Z,12
2018-09-05T07:51:18.716Z,12
2018-09-05T07:52:28.474Z,12
2018-09-05T07:53:37.746Z,12
2018-09-05T07:54:47.003Z,12
2018-09-05T07:55:56.722Z,12
2018-09-05T07:57:06.416Z,12
2018-09-05T07:58:15.678Z,16
2018-09-05T07:59:25.448Z,12
2018-09-05T08:00:34.871Z,16
2018-09-05T08:01:44.305Z,16
2018-09-05T08:02:53.846Z,16
2018-09-05T08:04:03.854Z,16
2018-09-05T08:05:13.409Z,12
2018-09-05T08:06:23.231Z,12
2018-09-05T08:07:33.518Z,12
2018-09-05T08:08:42.941Z,12
2018-09-05T08:09:52.141Z,16
2018-09-05T08:11:01.717Z,16
2018-09-05T08:12:11.002Z,12
2018-09-05T08:13:20.749Z,16
2018-09-05T08:14:30.443Z,12
2018-09-05T08:15:40.324Z,12
2018-09-05T08:16:50.299Z,12
2018-09-05T08:17:59.704Z,16
2018-09-05T08:19:08.898Z,16
2018-09-05T08:20:17.935Z,16
2018-09-05T08:21:28.506Z,16
2018-09-05T08:22:37.932Z,16
2018-09-05T08:23:47.504Z,16
2018-09-05T08:24:56.669Z,16
2018-09-05T08:26:06.146Z,16
2018-09-05T08:27:15.838Z,16
2018-09-05T08:28:25.259Z,16
2018-09-05T08:29:34.977Z,16
2018-09-05T08:30:44.456Z,16
2018-09-05T08:31:53.388Z,12
2018-09-05T08:33:02.297Z,16
2018-09-05T08:34:11.990Z,16
2018-09-05T08:35:22.266Z,16
2018-09-05T08:36:34.111Z,12
2018-09-05T08:37:45.166Z,12
2018-09-05T08:38:55.639Z,12
2018-09-05T08:40:05.856Z,12
2018-09-05T08:41:15.846Z,12
2018-09-05T08:42:26.530Z,12
2018-09-05T08:43:36.312Z,12
2018-09-05T08:44:46.327Z,16
2018-09-05T08:45:58.354Z,12
2018-09-05T08:47:08.456Z,12
2018-09-05T08:48:17.627Z,16
2018-09-05T08:49:26.952Z,16
2018-09-05T08:50:36.397Z,12
2018-09-05T08:51:45.301Z,12
2018-09-05T08:52:55.459Z,16
2018-09-05T08:54:05.543Z,24
2018-09-05T08:55:15.359Z,28
2018-09-05T08:56:25.165Z,20
2018-09-05T08:57:34.711Z,28
2018-09-05T08:58:44.509Z,24
2018-09-05T08:59:54.186Z,16
2018-09-05T09:01:03.892Z,16
2018-09-05T09:02:13.161Z,16
2018-09-05T09:03:23.176Z,16
2018-09-05T09:04:33.099Z,16
2018-09-05T09:05:42.410Z,16
2018-09-05T09:06:51.592Z,12
2018-09-05T09:08:01.017Z,16
2018-09-05T09:09:10.478Z,20
2018-09-05T09:10:20.437Z,16
2018-09-05T09:11:30.155Z,16
2018-09-05T09:12:39.671Z,16
2018-09-05T09:13:48.861Z,20
2018-09-05T09:14:57.770Z,16
2018-09-05T09:16:07.445Z,16
2018-09-05T09:17:16.597Z,16
2018-09-05T09:18:26.072Z,16
2018-09-05T09:19:35.526Z,16
2018-09-05T09:20:44.976Z,16
2018-09-05T09:21:54.148Z,16
2018-09-05T09:23:03.865Z,16
2018-09-05T09:24:13.556Z,16
2018-09-05T09:25:23.273Z,16
2018-09-05T09:26:32.967Z,16
2018-09-05T09:27:42.526Z,16
2018-09-05T09:28:51.818Z,16
2018-09-05T09:30:01.274Z,16
2018-09-05T09:31:10.720Z,16
2018-09-05T09:32:19.902Z,16
2018-09-05T09:33:28.828Z,16
2018-09-05T09:34:38.284Z,16
2018-09-05T09:35:47.790Z,16
2018-09-05T09:36:57.750Z,16
2018-09-05T09:38:07.587Z,16
2018-09-05T09:39:17.426Z,16
2018-09-05T09:40:27.271Z,16
2018-09-05T09:41:36.691Z,16
2018-09-05T09:42:46.117Z,16
2018-09-05T09:43:55.546Z,16
2018-09-05T09:45:04.974Z,16
2018-09-05T09:46:14.918Z,16
2018-09-05T09:47:24.361Z,16
2018-09-05T09:48:34.081Z,16
2018-09-05T09:49:43.762Z,16
2018-09-05T09:50:53.428Z,16
2018-09-05T09:52:02.856Z,16
2018-09-05T09:53:12.026Z,16
2018-09-05T09:54:21.711Z,16
2018-09-05T09:55:30.904Z,16
2018-09-05T09:56:40.787Z,16
2018-09-05T09:57:50.609Z,16
2018-09-05T09:58:59.549Z,16
2018-09-05T10:00:09.244Z,16
2018-09-05T10:01:18.428Z,16
2018-09-05T10:02:27.876Z,16
2018-09-05T10:03:38.254Z,16
2018-09-05T10:04:49.510Z,16
2018-09-05T10:05:59.505Z,16
2018-09-05T10:07:09.400Z,16
2018-09-05T10:08:18.626Z,16
2018-09-05T10:09:28.065Z,16
2018-09-05T10:10:37.923Z,16
2018-09-05T10:11:47.714Z,16
2018-09-05T10:12:56.633Z,16
2018-09-05T10:14:06.573Z,16
2018-09-05T10:15:16.572Z,16
2018-09-05T10:16:25.992Z,16
2018-09-05T10:17:35.589Z,16
2018-09-05T10:18:45.031Z,16
2018-09-05T10:19:54.484Z,16
2018-09-05T10:21:04.549Z,20
2018-09-05T10:22:15.217Z,16
2018-09-05T10:23:25.195Z,16
2018-09-05T10:24:34.634Z,16
2018-09-05T10:25:43.902Z,20
2018-09-05T10:26:53.325Z,20
2018-09-05T10:28:02.470Z,24
2018-09-05T10:29:12.170Z,24
2018-09-05T10:30:22.193Z,24
2018-09-05T10:31:31.898Z,24
2018-09-05T10:32:41.443Z,20
2018-09-05T10:33:51.541Z,20
2018-09-05T10:35:00.980Z,20
2018-09-05T10:36:10.488Z,24
2018-09-05T10:37:19.912Z,20
2018-09-05T10:38:29.647Z,24
2018-09-05T10:39:39.074Z,24
2018-09-05T10:40:48.784Z,24
2018-09-05T10:41:58.200Z,24
2018-09-05T10:43:08.135Z,28
2018-09-05T10:44:18.223Z,32
2018-09-05T10:45:28.055Z,36
2018-09-05T10:46:37.746Z,24
2018-09-05T10:47:47.486Z,24
2018-09-05T10:48:56.914Z,20
2018-09-05T10:50:06.147Z,24
2018-09-05T10:51:15.361Z,24
2018-09-05T10:52:24.541Z,20
2018-09-05T10:53:33.726Z,24
2018-09-05T10:54:43.677Z,20
2018-09-05T10:55:53.624Z,24
2018-09-05T10:57:03.098Z,24
2018-09-05T10:58:12.824Z,24
2018-09-05T10:59:22.389Z,20
2018-09-05T11:00:31.856Z,20
2018-09-05T11:01:41.028Z,20
2018-09-05T11:02:50.295Z,16
2018-09-05T11:03:59.246Z,20
2018-09-05T11:05:08.959Z,20
2018-09-05T11:06:18.241Z,16
2018-09-05T11:07:26.897Z,20
2018-09-05T11:08:36.364Z,20
2018-09-05T11:09:45.264Z,20
2018-09-05T11:10:55.022Z,20
2018-09-05T11:12:04.755Z,20
2018-09-05T11:13:14.205Z,20
2018-09-05T11:14:23.360Z,20
2018-09-05T11:15:32.784Z,20
2018-09-05T11:16:41.936Z,20
2018-09-05T11:17:51.653Z,20
2018-09-05T11:19:01.364Z,20
2018-09-05T11:20:10.866Z,20
2018-09-05T11:21:20.177Z,20
2018-09-05T11:22:30.106Z,24
2018-09-05T11:23:39.535Z,20
2018-09-05T11:24:49.511Z,20
2018-09-05T11:25:58.753Z,24
2018-09-05T11:27:07.956Z,24
2018-09-05T11:28:17.122Z,24
2018-09-05T11:29:26.549Z,24
2018-09-05T11:30:36.122Z,24
2018-09-05T11:31:45.551Z,24
2018-09-05T11:32:55.233Z,24
2018-09-05T11:34:05.049Z,24
2018-09-05T11:35:14.217Z,24
2018-09-05T11:36:23.655Z,28
2018-09-05T11:37:33.324Z,24
2018-09-05T11:38:42.552Z,24
2018-09-05T11:39:51.441Z,24
2018-09-05T11:41:00.869Z,24
2018-09-05T11:42:10.283Z,24
2018-09-05T11:43:20.060Z,24
2018-09-05T11:44:29.493Z,24
2018-09-05T11:45:38.929Z,24
2018-09-05T11:46:48.346Z,20
2018-09-05T11:47:57.516Z,20
2018-09-05T11:49:06.513Z,24
2018-09-05T11:50:15.925Z,24
2018-09-05T11:51:25.351Z,20
2018-09-05T11:52:34.249Z,24
2018-09-05T11:53:43.940Z,24
2018-09-05T11:54:53.611Z,24
2018-09-05T11:56:03.048Z,20
2018-09-05T11:57:12.620Z,24
2018-09-05T11:58:22.494Z,20
2018-09-05T11:59:31.670Z,20
2018-09-05T12:00:40.853Z,20
2018-09-05T12:01:50.566Z,20
2018-09-05T12:03:00.014Z,20
2018-09-05T12:04:09.711Z,20
2018-09-05T12:05:18.640Z,24
2018-09-05T12:06:27.547Z,24
2018-09-05T12:07:36.994Z,24
2018-09-05T12:08:46.240Z,28
2018-09-05T12:09:55.807Z,24
2018-09-05T12:11:05.514Z,24
2018-09-05T12:12:15.798Z,28
2018-09-05T12:13:25.748Z,28
2018-09-05T12:14:34.937Z,28
2018-09-05T12:15:44.347Z,28
2018-09-05T12:16:53.563Z,28
2018-09-05T12:18:02.990Z,28
2018-09-05T12:19:12.972Z,28
2018-09-05T12:20:22.149Z,28
2018-09-05T12:21:31.846Z,28
2018-09-05T12:22:42.311Z,28
2018-09-05T12:23:51.784Z,28
2018-09-05T12:25:01.468Z,24
2018-09-05T12:26:10.926Z,24
2018-09-05T12:27:20.906Z,32
2018-09-05T12:28:30.592Z,28
2018-09-05T12:29:40.581Z,24
2018-09-05T12:30:50.254Z,28
2018-09-05T12:31:59.980Z,36
2018-09-05T12:33:09.149Z,40
2018-09-05T12:34:18.820Z,40
2018-09-05T12:35:28.513Z,44
2018-09-05T12:36:37.942Z,40
2018-09-05T12:37:47.361Z,40
2018-09-05T12:38:56.784Z,40
2018-09-05T12:40:06.453Z,40
2018-09-05T12:41:16.134Z,40
2018-09-05T12:42:26.572Z,40
2018-09-05T12:43:35.743Z,40
2018-09-05T12:44:45.607Z,40
2018-09-05T12:45:56.085Z,40
2018-09-05T12:47:05.942Z,40
2018-09-05T12:48:15.882Z,40
2018-09-05T12:49:25.055Z,40
2018-09-05T12:50:35.184Z,40
2018-09-05T12:51:45.255Z,44
2018-09-05T12:52:54.587Z,28
2018-09-05T12:54:03.245Z,36
2018-09-05T12:55:12.696Z,36
2018-09-05T12:56:23.124Z,40
2018-09-05T12:57:33.281Z,32
2018-09-05T12:58:42.474Z,20
2018-09-05T12:59:52.427Z,28
2018-09-05T13:01:02.107Z,40
2018-09-05T13:02:11.775Z,48
2018-09-05T13:03:20.677Z,48
2018-09-05T13:04:30.777Z,48
2018-09-05T13:05:40.464Z,52
2018-09-05T13:06:50.318Z,48
2018-09-05T13:08:00.076Z,52
2018-09-05T13:09:10.462Z,52
2018-09-05T13:10:19.666Z,48
2018-09-05T13:11:30.017Z,52
2018-09-05T13:12:39.522Z,52
2018-09-05T13:13:48.768Z,52
2018-09-05T13:14:58.460Z,52
2018-09-05T13:16:07.368Z,52
2018-09-05T13:17:16.545Z,52
2018-09-05T13:18:26.281Z,52
2018-09-05T13:19:35.723Z,52
2018-09-05T13:20:45.404Z,56
2018-09-05T13:21:54.578Z,52
2018-09-05T13:23:04.254Z,56
2018-09-05T13:24:13.554Z,56
2018-09-05T13:25:22.730Z,56
2018-09-05T13:26:32.847Z,56
2018-09-05T13:27:42.563Z,56
2018-09-05T13:28:51.972Z,56
2018-09-05T13:30:01.390Z,52
2018-09-05T13:31:10.580Z,52
2018-09-05T13:32:19.738Z,56
2018-09-05T13:33:28.894Z,56
2018-09-05T13:34:38.854Z,60
2018-09-05T13:35:48.024Z,56
2018-09-05T13:36:57.197Z,56
2018-09-05T13:38:06.384Z,56
2018-09-05T13:39:15.817Z,60
2018-09-05T13:40:25.041Z,56
2018-09-05T13:41:34.982Z,56
2018-09-05T13:42:44.719Z,56
2018-09-05T13:43:53.631Z,56
2018-09-05T13:45:03.559Z,56
2018-09-05T13:46:13.123Z,56
2018-09-05T13:47:22.298Z,56
2018-09-05T13:48:31.733Z,52
2018-09-05T13:49:41.158Z,48
2018-09-05T13:50:50.851Z,56
2018-09-05T13:51:59.764Z,40
2018-09-05T13:53:09.186Z,60
2018-09-05T13:54:18.612Z,56
2018-09-05T13:55:28.315Z,56
2018-09-05T13:56:38.342Z,60
2018-09-05T13:57:47.331Z,56
2018-09-05T13:58:57.032Z,56
2018-09-05T14:00:06.746Z,56
2018-09-05T14:01:15.917Z,52
2018-09-05T14:02:25.648Z,60
2018-09-05T14:03:35.089Z,60
2018-09-05T14:04:44.520Z,56
2018-09-05T14:05:53.988Z,56
2018-09-05T14:07:03.667Z,56
2018-09-05T14:08:13.353Z,44
2018-09-05T14:09:23.048Z,52
2018-09-05T14:10:32.804Z,60
2018-09-05T14:11:41.979Z,60
2018-09-05T14:12:51.457Z,60
2018-09-05T14:14:00.883Z,56
2018-09-05T14:15:09.818Z,56
2018-09-05T14:16:19.229Z,52
2018-09-05T14:17:28.671Z,52
2018-09-05T14:18:38.078Z,52
2018-09-05T14:19:47.483Z,52
2018-09-05T14:20:56.392Z,48
2018-09-05T14:22:06.092Z,44
2018-09-05T14:23:15.537Z,48
2018-09-05T14:24:25.354Z,48
2018-09-05T14:25:34.571Z,48
2018-09-05T14:26:44.674Z,52
2018-09-05T14:27:54.217Z,48
2018-09-05T14:29:03.945Z,48
2018-09-05T14:30:13.936Z,44
2018-09-05T14:31:23.563Z,36
2018-09-05T14:32:33.007Z,32
2018-09-05T14:33:41.672Z,28
2018-09-05T14:34:51.099Z,28
2018-09-05T14:36:00.057Z,24
2018-09-05T14:37:09.497Z,16
2018-09-05T14:38:18.434Z,16
2018-09-05T14:39:27.886Z,16
2018-09-05T14:40:36.804Z,16
2018-09-05T14:41:46.742Z,16
2018-09-05T14:42:56.421Z,16
2018-09-05T14:44:05.596Z,16
2018-09-05T14:45:15.333Z,16
2018-09-05T14:46:25.282Z,16
2018-09-05T14:47:34.724Z,16
2018-09-05T14:48:44.330Z,12
2018-09-05T14:49:53.398Z,16
2018-09-05T14:51:03.088Z,16
2018-09-05T14:52:13.017Z,16
2018-09-05T14:53:22.186Z,16
2018-09-05T14:54:32.463Z,16
2018-09-05T14:55:42.411Z,16
2018-09-05T14:56:51.828Z,12
2018-09-05T14:58:01.005Z,16
2018-09-05T14:59:10.428Z,12
2018-09-05T15:00:20.378Z,12
2018-09-05T15:01:30.386Z,12
2018-09-05T15:02:39.802Z,12
2018-09-05T15:03:49.473Z,12
2018-09-05T15:04:58.944Z,12
2018-09-05T15:06:08.378Z,12
2018-09-05T15:07:18.063Z,12
2018-09-05T15:08:27.743Z,12
2018-09-05T15:09:37.411Z,12
2018-09-05T15:10:46.589Z,12
2018-09-05T15:11:56.268Z,8
2018-09-05T15:13:05.731Z,12
2018-09-05T15:14:15.420Z,12
2018-09-05T15:15:25.140Z,12
2018-09-05T15:16:34.616Z,12
2018-09-05T15:17:43.980Z,12
2018-09-05T15:18:53.600Z,12
2018-09-05T15:20:02.539Z,12
2018-09-05T15:21:11.967Z,8
2018-09-05T15:22:21.646Z,12
2018-09-05T15:23:31.646Z,12
2018-09-05T15:24:41.135Z,8
2018-09-05T15:25:50.547Z,8
2018-09-05T15:27:00.483Z,12
2018-09-05T15:28:09.656Z,12
2018-09-05T15:29:19.336Z,12
2018-09-05T15:30:28.769Z,12
2018-09-05T15:31:37.947Z,12
2018-09-05T15:32:47.400Z,12
2018-09-05T15:33:56.827Z,12
2018-09-05T15:35:06.853Z,12
2018-09-05T15:36:16.573Z,12
2018-09-05T15:37:25.493Z,12
2018-09-05T15:38:35.170Z,12
2018-09-05T15:39:44.336Z,12
2018-09-05T15:40:54.324Z,8
2018-09-05T15:42:03.751Z,8
2018-09-05T15:43:13.423Z,12
2018-09-05T15:44:23.805Z,8
2018-09-05T15:45:33.250Z,8
2018-09-05T15:46:42.743Z,8
2018-09-05T15:47:52.299Z,4
2018-09-05T15:49:01.993Z,8
2018-09-05T15:50:11.884Z,8
2018-09-05T15:51:20.801Z,8
2018-09-05T15:52:30.005Z,4
2018-09-05T15:53:39.715Z,4
2018-09-05T15:54:49.142Z,4
2018-09-05T15:55:58.566Z,4
2018-09-05T15:57:07.819Z,8
2018-09-05T15:58:16.988Z,8
2018-09-05T15:59:26.433Z,8
2018-09-05T16:00:35.864Z,8
2018-09-05T16:01:45.314Z,8
2018-09-05T16:02:54.804Z,4
2018-09-05T16:04:03.724Z,4
2018-09-05T16:05:12.949Z,4
2018-09-05T16:06:22.122Z,4
2018-09-05T16:07:31.566Z,4
2018-09-05T16:08:41.268Z,4
2018-09-05T16:09:51.002Z,4
2018-09-05T16:11:00.818Z,4
2018-09-05T16:12:10.543Z,4
2018-09-05T16:13:20.213Z,4
2018-09-05T16:14:29.717Z,4
2018-09-05T16:15:40.627Z,4
2018-09-05T16:16:50.490Z,4
2018-09-05T16:17:59.922Z,4
2018-09-05T16:19:09.139Z,8
2018-09-05T16:20:18.818Z,8
2018-09-05T16:21:28.271Z,8
2018-09-05T16:22:38.028Z,8
2018-09-05T16:23:47.472Z,8
2018-09-05T16:24:57.164Z,8
2018-09-05T16:26:06.736Z,4
2018-09-05T16:27:16.452Z,8
2018-09-05T16:28:25.905Z,4
2018-09-05T16:29:35.703Z,4
2018-09-05T16:30:45.454Z,4
2018-09-05T16:31:55.153Z,4
2018-09-05T16:33:04.371Z,0
2018-09-05T16:34:13.908Z,0
2018-09-05T16:35:23.396Z,0
2018-09-05T16:36:32.912Z,0
2018-09-05T16:37:42.607Z,4
2018-09-05T16:38:51.810Z,4
2018-09-05T16:40:00.993Z,4
2018-09-05T16:41:09.652Z,4
2018-09-05T16:42:19.095Z,4
2018-09-05T16:43:28.577Z,4
2018-09-05T16:44:37.739Z,0
2018-09-05T16:45:47.169Z,0
2018-09-05T16:46:56.377Z,4
2018-09-05T16:48:05.802Z,4